Time;durP1;ratioP1;P1;durP2;ratioP2;P2;SDS_P1;SDS_P2;PMS_P1;PMS_P2;Temp;Humidity;BMP_temperature;BMP_pressure;BME280_temperature;BME280_humidity;BME280_pressure;Samples;Min_cycle;Max_cycle;Signal;HPM_P1;HPM_P2
2021/07/08 00:01:26;;;;;;;11.27;10.18;;;18.10;99.90;;;;;;4918360;29;20220;-40
2021/07/08 00:03:55;;;;;;;10.50;9.60;;;18.10;99.90;;;;;;4918385;29;20232;-40
2021/07/08 00:06:23;;;;;;;10.75;9.75;;;18.10;99.90;;;;;;4918375;29;20217;-42
2021/07/08 00:08:51;;;;;;;11.45;10.45;;;18.10;99.90;;;;;;4918245;29;20299;-40
2021/07/08 00:11:19;;;;;;;13.10;11.82;;;18.10;99.90;;;;;;4918256;29;20304;-41
2021/07/08 00:13:48;;;;;;;11.52;10.48;;;18.10;99.90;;;;;;4918114;29;20304;-42
2021/07/08 00:16:16;;;;;;;11.77;10.55;;;18.10;99.90;;;;;;4918157;29;20288;-40
2021/07/08 00:18:45;;;;;;;10.63;9.35;;;18.10;99.90;;;;;;4918174;29;20216;-40
2021/07/08 00:21:13;;;;;;;11.85;10.40;;;18.20;99.90;;;;;;4918068;29;20690;-40
2021/07/08 00:23:41;;;;;;;10.00;9.10;;;18.20;99.90;;;;;;4918092;29;20307;-41
2021/07/08 00:26:09;;;;;;;10.43;9.48;;;18.10;99.90;;;;;;4918071;29;20216;-40
2021/07/08 00:28:37;;;;;;;11.00;10.07;;;18.10;99.90;;;;;;4917903;29;20225;-41
2021/07/08 00:31:05;;;;;;;11.90;10.80;;;18.10;99.90;;;;;;4917897;29;20715;-42
2021/07/08 00:33:33;;;;;;;12.27;10.75;;;18.10;99.90;;;;;;4918091;29;20291;-41
2021/07/08 00:36:02;;;;;;;12.20;11.00;;;18.10;99.90;;;;;;4917899;29;20251;-40
2021/07/08 00:38:30;;;;;;;12.40;11.07;;;18.10;99.90;;;;;;4918255;29;20213;-42
2021/07/08 00:40:58;;;;;;;13.50;10.23;;;18.10;99.90;;;;;;4917566;29;20232;-42
2021/07/08 00:43:28;;;;;;;11.52;10.27;;;18.10;99.90;;;;;;4917688;29;20295;-41
2021/07/08 00:45:56;;;;;;;14.38;13.00;;;18.10;99.90;;;;;;4917324;29;20223;-42
2021/07/08 00:48:24;;;;;;;13.80;12.50;;;18.10;99.90;;;;;;4917572;29;20331;-41
2021/07/08 00:50:53;;;;;;;13.65;12.25;;;18.10;99.90;;;;;;4917753;29;20408;-41
2021/07/08 00:53:23;;;;;;;13.40;11.93;;;18.10;99.90;;;;;;4917598;29;20676;-42
2021/07/08 00:55:57;;;;;;;15.77;14.07;;;18.10;99.90;;;;;;4917711;29;20212;-43
2021/07/08 00:58:26;;;;;;;13.63;12.27;;;18.10;99.90;;;;;;4917706;29;20231;-43
2021/07/08 01:00:53;;;;;;;13.55;12.18;;;18.10;99.90;;;;;;4917543;29;20247;-41
2021/07/08 01:03:22;;;;;;;13.02;11.73;;;18.10;99.90;;;;;;4917526;29;20212;-41
2021/07/08 01:05:52;;;;;;;14.63;13.07;;;18.10;99.90;;;;;;4917293;29;20213;-42
2021/07/08 01:08:23;;;;;;;13.18;11.98;;;18.10;99.90;;;;;;4917254;29;20263;-42
2021/07/08 01:10:52;;;;;;;14.27;12.77;;;18.10;99.90;;;;;;4917333;29;20209;-44
2021/07/08 01:13:21;;;;;;;14.48;12.93;;;18.10;99.90;;;;;;4917186;29;20577;-41
2021/07/08 01:15:50;;;;;;;14.73;13.13;;;18.10;99.90;;;;;;4917201;29;20219;-45
2021/07/08 01:18:19;;;;;;;15.02;13.52;;;18.10;99.90;;;;;;4917177;29;20232;-42
2021/07/08 01:20:47;;;;;;;15.02;13.52;;;18.00;99.90;;;;;;4916959;29;20239;-42
2021/07/08 01:23:16;;;;;;;14.23;12.85;;;18.00;99.90;;;;;;4917175;29;20263;-42
2021/07/08 01:25:44;;;;;;;13.48;12.27;;;18.10;99.90;;;;;;4916967;29;20308;-41
2021/07/08 01:28:13;;;;;;;13.23;11.93;;;18.00;99.90;;;;;;4916958;29;20308;-45
2021/07/08 01:30:44;;;;;;;13.77;12.57;;;18.00;99.90;;;;;;4917127;29;20291;-42
2021/07/08 01:33:12;;;;;;;13.50;12.30;;;18.00;99.90;;;;;;4916829;29;20215;-42
2021/07/08 01:35:40;;;;;;;14.20;12.80;;;18.00;99.90;;;;;;4916944;29;20295;-40
2021/07/08 01:38:08;;;;;;;14.18;12.77;;;17.90;99.90;;;;;;4916842;29;20250;-40
2021/07/08 01:40:39;;;;;;;13.52;12.27;;;17.90;99.90;;;;;;4916468;29;20752;-41
2021/07/08 01:43:07;;;;;;;13.25;11.90;;;18.00;99.90;;;;;;4916635;29;20731;-41
2021/07/08 01:45:35;;;;;;;14.00;12.57;;;18.00;99.90;;;;;;4918097;29;20216;-42
2021/07/08 01:48:03;;;;;;;14.38;13.07;;;18.00;99.90;;;;;;4917308;29;20270;-44
2021/07/08 01:50:32;;;;;;;14.23;12.73;;;18.00;99.90;;;;;;4916717;29;20220;-43
2021/07/08 01:53:00;;;;;;;12.73;11.48;;;18.00;99.90;;;;;;4916353;29;20248;-44
2021/07/08 01:55:28;;;;;;;11.77;10.60;;;18.00;99.90;;;;;;4916284;29;20680;-42
2021/07/08 01:57:57;;;;;;;13.00;11.80;;;17.90;99.90;;;;;;4915622;29;20289;-43
2021/07/08 02:00:26;;;;;;;13.07;11.82;;;17.90;99.90;;;;;;4916243;29;20326;-44
2021/07/08 02:02:55;;;;;;;12.82;11.57;;;17.80;99.90;;;;;;4916367;29;20312;-42
2021/07/08 02:05:23;;;;;;;13.23;12.00;;;17.80;99.90;;;;;;4916433;29;20296;-44
2021/07/08 02:07:52;;;;;;;12.88;11.48;;;17.80;99.90;;;;;;4916224;29;20251;-44
2021/07/08 02:10:21;;;;;;;14.90;11.80;;;17.70;99.90;;;;;;4916126;29;20659;-42
2021/07/08 02:12:50;;;;;;;12.02;10.93;;;17.60;99.90;;;;;;4915924;29;20260;-43
2021/07/08 02:15:21;;;;;;;12.52;11.35;;;17.60;99.90;;;;;;4916277;29;20213;-44
2021/07/08 02:17:49;;;;;;;13.30;11.93;;;17.50;99.90;;;;;;4916191;29;20217;-43
2021/07/08 02:20:17;;;;;;;13.95;12.55;;;17.50;99.90;;;;;;4915956;29;20238;-41
2021/07/08 02:22:45;;;;;;;14.00;12.60;;;17.50;99.90;;;;;;4916086;29;20407;-43
2021/07/08 02:25:15;;;;;;;15.38;12.57;;;17.40;99.90;;;;;;4915880;29;20213;-42
2021/07/08 02:27:43;;;;;;;14.40;12.98;;;17.40;99.90;;;;;;4916058;29;20307;-41
2021/07/08 02:30:14;;;;;;;16.23;13.88;;;17.40;99.90;;;;;;4916145;29;20303;-41
2021/07/08 02:32:44;;;;;;;21.17;14.13;;;17.40;99.90;;;;;;4915874;29;20299;-41
2021/07/08 02:35:13;;;;;;;15.07;13.50;;;17.30;99.90;;;;;;4915797;29;20720;-41
2021/07/08 02:37:42;;;;;;;14.80;13.40;;;17.30;99.90;;;;;;4915729;29;20300;-41
2021/07/08 02:40:13;;;;;;;13.50;12.25;;;17.30;99.90;;;;;;4916288;29;20319;-41
2021/07/08 02:42:44;;;;;;;14.77;13.20;;;17.30;99.90;;;;;;4915655;29;20230;-42
2021/07/08 02:45:13;;;;;;;15.15;13.55;;;17.30;99.90;;;;;;4915639;29;20213;-41
2021/07/08 02:47:41;;;;;;;14.13;12.65;;;17.30;99.90;;;;;;4915668;29;20270;-42
2021/07/08 02:50:11;;;;;;;17.38;12.63;;;17.30;99.90;;;;;;4915635;29;20216;-41
2021/07/08 02:52:39;;;;;;;12.95;11.63;;;17.30;99.90;;;;;;4915599;29;20248;-41
2021/07/08 02:55:08;;;;;;;13.90;12.63;;;17.30;99.90;;;;;;4915380;29;20252;-41
2021/07/08 02:57:36;;;;;;;12.90;11.60;;;17.30;99.90;;;;;;4915549;29;20710;-40
2021/07/08 03:00:06;;;;;;;13.93;12.50;;;17.40;99.90;;;;;;4915617;29;20213;-41
2021/07/08 03:02:34;;;;;;;14.20;12.73;;;17.40;99.90;;;;;;4915600;29;20303;-40
2021/07/08 03:05:03;;;;;;;15.68;11.50;;;17.40;99.90;;;;;;4915932;29;20216;-40
2021/07/08 03:07:32;;;;;;;13.48;12.25;;;17.40;99.90;;;;;;4915689;29;20213;-40
2021/07/08 03:10:00;;;;;;;13.43;12.18;;;17.50;99.90;;;;;;4917399;29;20614;-40
2021/07/08 03:12:28;;;;;;;14.15;12.75;;;17.50;99.90;;;;;;4919214;29;20217;-41
2021/07/08 03:14:56;;;;;;;14.10;11.35;;;17.40;99.90;;;;;;4919248;29;20342;-42
2021/07/08 03:17:24;;;;;;;13.25;11.85;;;17.40;99.90;;;;;;4919130;29;20327;-42
2021/07/08 03:19:53;;;;;;;14.00;12.75;;;17.40;99.90;;;;;;4919230;29;20227;-41
2021/07/08 03:22:21;;;;;;;13.07;11.93;;;17.30;99.90;;;;;;4919143;29;20327;-41
2021/07/08 03:24:50;;;;;;;14.82;13.27;;;17.30;99.90;;;;;;4919049;29;20303;-44
2021/07/08 03:27:18;;;;;;;15.18;13.70;;;17.30;99.90;;;;;;4919015;29;20216;-41
2021/07/08 03:29:46;;;;;;;12.90;11.80;;;17.30;99.90;;;;;;4918867;29;20253;-40
2021/07/08 03:32:14;;;;;;;13.32;12.05;;;17.30;99.90;;;;;;4918845;29;20623;-41
2021/07/08 03:34:42;;;;;;;15.88;12.85;;;17.30;99.90;;;;;;4918991;29;20276;-41
2021/07/08 03:37:10;;;;;;;16.52;12.95;;;17.20;99.90;;;;;;4918892;29;20228;-44
2021/07/08 03:39:38;;;;;;;14.90;13.05;;;17.20;99.90;;;;;;4919145;29;20292;-51
2021/07/08 03:42:08;;;;;;;14.57;12.98;;;17.20;99.90;;;;;;4918605;29;20674;-48
2021/07/08 03:44:37;;;;;;;14.10;12.65;;;17.20;99.90;;;;;;4918968;29;20614;-51
2021/07/08 03:47:05;;;;;;;16.88;15.20;;;17.20;99.90;;;;;;4918479;29;20613;-48
2021/07/08 03:49:33;;;;;;;14.23;12.73;;;17.20;99.90;;;;;;4918628;29;20252;-47
2021/07/08 03:52:01;;;;;;;13.18;11.88;;;17.20;99.90;;;;;;4918594;29;20595;-47
2021/07/08 03:54:29;;;;;;;12.45;11.05;;;17.20;99.90;;;;;;4918538;29;20217;-51
2021/07/08 03:56:57;;;;;;;12.65;11.45;;;17.20;99.90;;;;;;4918523;29;20696;-52
2021/07/08 03:59:27;;;;;;;12.15;10.68;;;17.20;99.90;;;;;;4918571;29;20243;-47
2021/07/08 04:01:55;;;;;;;11.63;10.60;;;17.20;99.90;;;;;;4918008;29;20243;-49
2021/07/08 04:04:23;;;;;;;12.00;10.93;;;17.20;99.90;;;;;;4918240;29;20248;-45
2021/07/08 04:06:51;;;;;;;10.52;9.63;;;17.20;99.90;;;;;;4918012;29;20217;-45
2021/07/08 04:09:18;;;;;;;13.00;9.40;;;17.10;99.90;;;;;;4917839;29;20304;-45
2021/07/08 04:11:46;;;;;;;10.30;9.30;;;17.20;99.90;;;;;;4918178;29;20305;-46
2021/07/08 04:14:15;;;;;;;11.15;10.18;;;17.10;99.90;;;;;;4917787;29;20707;-47
2021/07/08 04:16:44;;;;;;;10.80;9.65;;;17.20;99.90;;;;;;4917955;29;20255;-47
2021/07/08 04:19:12;;;;;;;11.45;10.43;;;17.20;99.90;;;;;;4917851;29;20212;-46
2021/07/08 04:21:40;;;;;;;11.65;10.45;;;17.20;99.90;;;;;;4916698;29;20235;-48
2021/07/08 04:24:08;;;;;;;11.43;9.82;;;17.20;99.90;;;;;;4917707;29;20216;-48
2021/07/08 04:26:37;;;;;;;10.07;9.10;;;17.20;99.90;;;;;;4917734;29;20268;-48
2021/07/08 04:29:05;;;;;;;12.80;9.88;;;17.20;99.90;;;;;;4917777;29;20700;-48
2021/07/08 04:31:33;;;;;;;9.32;8.45;;;17.20;99.90;;;;;;4917846;29;20208;-44
2021/07/08 04:34:03;;;;;;;10.00;8.95;;;17.30;99.90;;;;;;4917193;29;20209;-45
2021/07/08 04:36:31;;;;;;;9.05;8.15;;;17.30;99.90;;;;;;4917410;29;20673;-44
2021/07/08 04:38:58;;;;;;;10.18;8.88;;;17.30;99.90;;;;;;4917639;29;20217;-46
2021/07/08 04:41:26;;;;;;;9.13;8.15;;;17.30;99.90;;;;;;4917188;29;20239;-50
2021/07/08 04:43:54;;;;;;;9.40;7.95;;;17.40;99.90;;;;;;4917452;29;20312;-50
2021/07/08 04:46:25;;;;;;;10.02;8.05;;;17.40;99.90;;;;;;4917602;29;20299;-43
2021/07/08 04:48:53;;;;;;;8.25;7.53;;;17.40;99.90;;;;;;4918747;29;20280;-50
2021/07/08 04:51:22;;;;;;;8.05;7.30;;;17.40;99.90;;;;;;4917897;29;20661;-45
2021/07/08 04:53:51;;;;;;;7.72;7.03;;;17.40;99.90;;;;;;4917781;29;20326;-45
2021/07/08 04:56:19;;;;;;;8.30;7.50;;;17.40;99.90;;;;;;4917623;29;20638;-48
2021/07/08 04:58:47;;;;;;;8.15;7.20;;;17.50;99.90;;;;;;4917386;29;20219;-45
2021/07/08 05:01:14;;;;;;;8.43;7.60;;;17.50;99.90;;;;;;4917186;29;20295;-47
2021/07/08 05:03:42;;;;;;;7.35;6.50;;;17.60;99.90;;;;;;4917453;29;20212;-46
2021/07/08 05:06:10;;;;;;;5.70;5.10;;;17.70;99.90;;;;;;4917380;29;20221;-47
2021/07/08 05:08:41;;;;;;;6.45;5.95;;;17.70;99.90;;;;;;4917439;29;20213;-49
2021/07/08 05:11:09;;;;;;;5.35;4.95;;;17.70;99.90;;;;;;4917242;29;20217;-47
2021/07/08 05:13:37;;;;;;;5.93;5.10;;;17.70;99.90;;;;;;4916954;29;20308;-51
2021/07/08 05:16:05;;;;;;;7.05;5.30;;;17.70;99.90;;;;;;4916960;29;20748;-47
2021/07/08 05:18:33;;;;;;;7.22;5.43;;;17.70;99.90;;;;;;4917098;29;20209;-46
2021/07/08 05:21:01;;;;;;;5.65;5.15;;;17.70;99.90;;;;;;4917109;29;20568;-46
2021/07/08 05:23:32;;;;;;;8.60;5.53;;;17.70;99.90;;;;;;4916963;29;20327;-46
2021/07/08 05:26:04;;;;;;;7.03;6.32;;;17.70;99.90;;;;;;4917156;29;20268;-48
2021/07/08 05:28:32;;;;;;;6.35;5.75;;;17.70;99.90;;;;;;4917276;29;20220;-46
2021/07/08 05:31:00;;;;;;;4.97;4.47;;;17.60;99.90;;;;;;4917266;29;20296;-48
2021/07/08 05:33:28;;;;;;;5.43;3.70;;;17.60;99.90;;;;;;4916855;29;20757;-45
2021/07/08 05:35:56;;;;;;;5.95;3.67;;;17.60;99.90;;;;;;4917000;29;20236;-44
2021/07/08 05:38:24;;;;;;;4.05;3.63;;;17.60;99.90;;;;;;4916677;29;20217;-46
2021/07/08 05:40:52;;;;;;;6.97;3.47;;;17.60;99.90;;;;;;4917247;29;20284;-47
2021/07/08 05:43:21;;;;;;;3.83;3.20;;;17.60;99.90;;;;;;4916300;29;20236;-44
2021/07/08 05:45:49;;;;;;;3.47;3.17;;;17.60;99.90;;;;;;4916802;29;20312;-46
2021/07/08 05:48:18;;;;;;;2.92;2.72;;;17.60;99.90;;;;;;4916338;29;20332;-47
2021/07/08 05:50:47;;;;;;;3.90;3.33;;;17.60;99.90;;;;;;4916536;29;20220;-47
2021/07/08 05:53:18;;;;;;;3.03;2.33;;;17.70;99.90;;;;;;4916649;29;20303;-52
2021/07/08 05:55:45;;;;;;;3.65;2.30;;;17.80;99.90;;;;;;4916382;29;20288;-51
2021/07/08 05:58:13;;;;;;;2.38;2.17;;;17.90;99.90;;;;;;4916355;29;20668;-48
2021/07/08 06:00:43;;;;;;;1.90;1.80;;;18.00;99.90;;;;;;4915951;29;20215;-46
2021/07/08 06:03:11;;;;;;;2.00;1.80;;;18.20;99.90;;;;;;4916057;29;20232;-49
2021/07/08 06:05:38;;;;;;;4.95;2.22;;;18.30;99.90;;;;;;4915963;29;20285;-49
2021/07/08 06:08:10;;;;;;;2.30;1.67;;;18.40;99.90;;;;;;4915906;29;20224;-54
2021/07/08 06:10:41;;;;;;;2.38;2.05;;;18.40;99.90;;;;;;4916051;29;20216;-50
2021/07/08 06:13:09;;;;;;;3.45;3.15;;;18.50;99.90;;;;;;4915906;29;20320;-49
2021/07/08 06:15:37;;;;;;;2.55;1.83;;;18.60;99.90;;;;;;4916077;29;20220;-50
2021/07/08 06:18:06;;;;;;;2.70;1.88;;;18.80;99.90;;;;;;4915996;29;20648;-45
2021/07/08 06:20:35;;;;;;;3.38;2.55;;;18.90;99.90;;;;;;4915809;29;20676;-47
2021/07/08 06:23:03;;;;;;;1.65;1.55;;;19.00;99.90;;;;;;4915824;29;20327;-46
2021/07/08 06:25:31;;;;;;;1.50;1.40;;;19.10;99.90;;;;;;4915438;29;20212;-49
2021/07/08 06:27:59;;;;;;;3.03;2.15;;;19.10;99.90;;;;;;4915739;29;20732;-48
2021/07/08 06:30:27;;;;;;;2.30;2.10;;;19.30;99.90;;;;;;4915638;29;20256;-52
2021/07/08 06:32:55;;;;;;;2.63;2.42;;;19.50;99.90;;;;;;4915609;29;20287;-47
2021/07/08 06:35:25;;;;;;;2.13;1.83;;;19.80;99.90;;;;;;4915904;29;20213;-46
2021/07/08 06:37:52;;;;;;;2.22;1.80;;;19.90;99.90;;;;;;4915870;29;20303;-46
2021/07/08 06:40:21;;;;;;;2.58;2.20;;;20.00;99.90;;;;;;4915743;29;20627;-47
2021/07/08 06:42:49;;;;;;;2.85;2.42;;;20.20;99.90;;;;;;4915577;29;20720;-46
2021/07/08 06:45:18;;;;;;;5.38;2.17;;;20.30;99.90;;;;;;4915124;29;20268;-47
2021/07/08 06:47:47;;;;;;;2.45;2.03;;;20.50;99.90;;;;;;4915375;29;20268;-46
2021/07/08 06:50:17;;;;;;;3.88;2.03;;;20.60;99.90;;;;;;4915683;29;20224;-45
2021/07/08 06:52:46;;;;;;;2.60;2.40;;;20.60;99.90;;;;;;4915783;29;20348;-48
2021/07/08 06:55:15;;;;;;;2.00;1.75;;;20.70;99.90;;;;;;4915720;29;20300;-48
2021/07/08 06:57:51;;;;;;;2.47;2.28;;;20.80;99.90;;;;;;4915509;29;20687;-51
2021/07/08 07:00:21;;;;;;;4.22;2.10;;;20.80;99.90;;;;;;4915436;29;20774;-49
2021/07/08 07:02:49;;;;;;;4.15;1.92;;;20.90;99.90;;;;;;4915602;29;20243;-49
2021/07/08 07:05:18;;;;;;;4.00;1.85;;;21.00;99.90;;;;;;4915630;29;20221;-51
2021/07/08 07:07:47;;;;;;;3.35;3.05;;;21.00;99.90;;;;;;4915469;29;20216;-49
2021/07/08 07:10:16;;;;;;;3.63;3.33;;;20.90;99.90;;;;;;4915500;29;20695;-47
2021/07/08 07:12:46;;;;;;;2.95;2.75;;;20.80;99.90;;;;;;4915327;29;20687;-48
2021/07/08 07:15:17;;;;;;;3.42;3.13;;;20.80;99.90;;;;;;4915599;29;20348;-46
2021/07/08 07:17:47;;;;;;;5.55;3.70;;;20.80;99.90;;;;;;4915723;29;20272;-46
2021/07/08 07:20:17;;;;;;;3.42;3.13;;;20.70;99.90;;;;;;4915182;29;20213;-46
2021/07/08 07:22:48;;;;;;;4.60;4.03;;;20.60;99.90;;;;;;4915208;29;20357;-46
2021/07/08 07:25:18;;;;;;;4.82;3.38;;;20.50;99.90;;;;;;4915247;29;20212;-48
2021/07/08 07:27:49;;;;;;;3.58;2.90;;;20.40;99.90;;;;;;4915293;29;20217;-48
2021/07/08 07:30:18;;;;;;;3.92;3.63;;;20.30;99.90;;;;;;4915702;29;20247;-48
2021/07/08 07:32:46;;;;;;;3.60;3.35;;;20.20;99.90;;;;;;4915453;29;20236;-48
2021/07/08 07:35:15;;;;;;;4.40;3.95;;;20.10;99.90;;;;;;4915256;29;20241;-46
2021/07/08 07:37:43;;;;;;;2.90;2.70;;;20.00;99.90;;;;;;4915104;29;20316;-46
2021/07/08 07:40:14;;;;;;;3.75;3.38;;;20.00;99.90;;;;;;4915286;29;20577;-46
2021/07/08 07:42:42;;;;;;;5.63;3.08;;;19.90;99.90;;;;;;4915201;29;20225;-51
2021/07/08 07:45:11;;;;;;;6.35;3.80;;;19.90;99.90;;;;;;4914985;29;20232;-43
2021/07/08 07:47:39;;;;;;;4.38;3.97;;;19.80;99.90;;;;;;4915062;29;20240;-48
2021/07/08 07:50:09;;;;;;;4.00;3.38;;;19.80;99.90;;;;;;4914885;29;20263;-48
2021/07/08 07:52:37;;;;;;;3.28;3.03;;;19.70;99.90;;;;;;4914773;29;20296;-49
2021/07/08 07:55:06;;;;;;;2.97;2.78;;;19.70;99.90;;;;;;4914797;29;20304;-46
2021/07/08 07:57:35;;;;;;;3.40;2.95;;;19.60;99.90;;;;;;4917485;29;20288;-45
2021/07/08 08:00:05;;;;;;;3.17;2.88;;;19.50;99.90;;;;;;4918004;29;20295;-46
2021/07/08 08:02:32;;;;;;;2.78;2.58;;;19.40;99.90;;;;;;4917812;29;20267;-46
2021/07/08 08:05:19;;;;;;;3.85;3.08;;;19.20;99.90;;;;;;4918183;29;20217;-47
2021/07/08 08:10:32;;;;;;;3.30;2.17;;;18.90;99.90;;;;;;4918052;29;20300;-49
2021/07/08 08:13:02;;;;;;;2.47;2.28;;;18.70;99.90;;;;;;4918127;29;20252;-46
2021/07/08 08:15:30;;;;;;;2.70;2.50;;;18.60;99.90;;;;;;4917623;29;20219;-47
2021/07/08 08:18:00;;;;;;;3.80;2.50;;;18.50;99.90;;;;;;4917826;29;20694;-47
2021/07/08 08:20:31;;;;;;;2.40;2.30;;;18.40;99.90;;;;;;4917872;29;20213;-47
2021/07/08 08:23:02;;;;;;;2.40;2.13;;;18.30;99.90;;;;;;4918025;29;20311;-47
2021/07/08 08:25:31;;;;;;;2.55;1.75;;;18.30;99.90;;;;;;4917668;29;20217;-46
2021/07/08 08:27:59;;;;;;;3.90;2.58;;;18.20;99.90;;;;;;4917671;29;20683;-44
2021/07/08 08:30:29;;;;;;;2.15;1.98;;;18.20;99.90;;;;;;4917406;29;20208;-47
2021/07/08 08:32:57;;;;;;;2.50;2.30;;;18.20;99.90;;;;;;4917861;29;20213;-44
2021/07/08 08:35:25;;;;;;;2.38;2.05;;;18.20;99.90;;;;;;4917778;29;20288;-44
2021/07/08 08:37:53;;;;;;;2.65;2.10;;;18.20;99.90;;;;;;4917644;29;20299;-50
2021/07/08 08:40:22;;;;;;;2.47;2.28;;;18.30;99.90;;;;;;4917686;29;20316;-46
2021/07/08 08:42:51;;;;;;;3.17;2.10;;;18.40;99.90;;;;;;4917285;29;20303;-46
2021/07/08 08:45:19;;;;;;;7.20;2.05;;;18.40;99.90;;;;;;4917282;29;20228;-45
2021/07/08 08:48:11;;;;;;;2.30;2.13;;;18.50;99.90;;;;;;4917510;29;20276;-47
2021/07/08 08:50:42;;;;;;;2.17;1.98;;;18.60;99.90;;;;;;4915078;29;20303;-45
2021/07/08 08:53:11;;;;;;;4.60;2.10;;;18.60;99.90;;;;;;4917429;29;20574;-46
2021/07/08 08:55:39;;;;;;;2.30;2.10;;;18.70;99.90;;;;;;4917772;29;20208;-47
2021/07/08 08:58:09;;;;;;;2.13;2.03;;;18.70;99.90;;;;;;4917161;29;20307;-43
2021/07/08 09:00:39;;;;;;;2.97;2.20;;;18.70;99.90;;;;;;4917315;29;20212;-46
2021/07/08 09:03:11;;;;;;;2.53;2.33;;;18.70;99.90;;;;;;4917264;29;20217;-44
2021/07/08 09:05:40;;;;;;;2.17;2.00;;;18.90;99.90;;;;;;4917725;29;20209;-48
2021/07/08 09:08:18;;;;;;;1.83;1.73;;;19.00;99.90;;;;;;4917123;29;20217;-45
2021/07/08 09:10:48;;;;;;;2.47;1.70;;;19.30;99.90;;;;;;4917199;29;20240;-45
2021/07/08 09:13:17;;;;;;;1.98;1.58;;;19.80;99.90;;;;;;4916778;29;20522;-46
2021/07/08 09:15:45;;;;;;;1.80;1.50;;;20.10;99.90;;;;;;4916903;29;20291;-47
2021/07/08 09:18:15;;;;;;;2.03;1.80;;;20.30;99.90;;;;;;4916977;29;20221;-45
2021/07/08 09:20:44;;;;;;;3.28;1.77;;;20.40;99.90;;;;;;4916920;29;20278;-47
2021/07/08 09:23:17;;;;;;;3.33;2.15;;;20.40;99.90;;;;;;4917026;29;20676;-46
2021/07/08 09:25:47;;;;;;;3.50;1.58;;;20.50;99.90;;;;;;4916735;29;20243;-50
2021/07/08 09:28:21;;;;;;;2.00;1.80;;;20.70;99.90;;;;;;4916597;29;20300;-50
2021/07/08 09:30:59;;;;;;;2.03;1.35;;;20.90;99.90;;;;;;4916911;29;20219;-47
2021/07/08 09:33:37;;;;;;;1.90;1.40;;;20.90;99.90;;;;;;4916651;29;20212;-47
2021/07/08 09:36:11;;;;;;;6.40;2.20;;;21.00;99.90;;;;;;4916513;29;20388;-47
2021/07/08 09:38:41;;;;;;;3.75;1.70;;;21.20;99.90;;;;;;4916561;29;20240;-46
2021/07/08 09:41:17;;;;;;;2.70;1.77;;;21.40;99.90;;;;;;4916782;29;20275;-52
2021/07/08 09:43:45;;;;;;;2.05;1.92;;;21.50;99.90;;;;;;4916632;29;20219;-46
2021/07/08 09:46:16;;;;;;;2.65;2.10;;;21.70;99.90;;;;;;4916479;29;20216;-47
2021/07/08 09:49:05;;;;;;;7.72;2.95;;;21.70;99.90;;;;;;4916083;29;20720;-45
2021/07/08 09:51:33;;;;;;;3.60;1.73;;;22.00;99.90;;;;;;4916340;29;20263;-47
2021/07/08 09:54:07;;;;;;;6.82;2.45;;;22.20;99.90;;;;;;4916587;29;20220;-46
2021/07/08 09:56:47;;;;;;;1.67;1.58;;;22.60;99.90;;;;;;4916568;29;20255;-47
2021/07/08 09:59:16;;;;;;;14.98;3.67;;;22.70;99.90;;;;;;4916200;29;20267;-46
2021/07/08 10:01:45;;;;;;;17.02;5.13;;;22.50;99.90;;;;;;4916527;29;20213;-46
2021/07/08 10:04:15;;;;;;;6.80;3.90;;;22.50;99.90;;;;;;4916447;29;20320;-47
2021/07/08 10:06:43;;;;;;;3.55;2.90;;;22.40;99.90;;;;;;4916388;29;20248;-48
2021/07/08 10:09:17;;;;;;;3.97;3.67;;;22.30;99.90;;;;;;4916374;29;20308;-48
2021/07/08 10:11:48;;;;;;;2.63;2.42;;;22.10;99.90;;;;;;4916048;29;20235;-49
2021/07/08 10:14:24;;;;;;;2.85;2.65;;;21.90;99.90;;;;;;4917585;29;20661;-45
2021/07/08 10:16:54;;;;;;;2.63;2.42;;;21.60;99.90;;;;;;4916253;29;20213;-45
2021/07/08 10:19:25;;;;;;;3.85;2.25;;;21.40;99.90;;;;;;4915444;29;20228;-49
2021/07/08 10:21:53;;;;;;;2.08;1.98;;;21.30;99.90;;;;;;4916076;29;20307;-49
2021/07/08 10:24:22;;;;;;;2.67;2.40;;;21.20;99.90;;;;;;4915838;29;20225;-50
2021/07/08 10:26:50;;;;;;;2.72;2.40;;;21.00;99.90;;;;;;4916327;29;20299;-47
2021/07/08 10:29:19;;;;;;;2.85;2.40;;;20.90;99.90;;;;;;4916197;29;20276;-45
2021/07/08 10:31:51;;;;;;;2.40;2.20;;;20.80;99.90;;;;;;4915910;29;20728;-45
2021/07/08 10:34:20;;;;;;;3.45;3.03;;;20.70;99.90;;;;;;4916065;29;20224;-45
2021/07/08 10:36:50;;;;;;;3.38;3.10;;;20.50;99.90;;;;;;4915933;29;20707;-45
2021/07/08 10:39:20;;;;;;;3.20;2.90;;;20.40;99.90;;;;;;4915803;29;20308;-45
2021/07/08 10:41:54;;;;;;;3.30;2.85;;;20.20;99.90;;;;;;4915934;29;20750;-44
2021/07/08 10:44:43;;;;;;;3.00;2.80;;;20.10;99.90;;;;;;4915898;29;20223;-45
2021/07/08 10:47:37;;;;;;;3.13;2.80;;;20.00;99.90;;;;;;4915766;29;20283;-47
2021/07/08 10:50:08;;;;;;;2.83;2.63;;;19.90;99.90;;;;;;4916031;29;20216;-45
2021/07/08 10:52:44;;;;;;;3.95;3.15;;;19.90;99.90;;;;;;4915633;29;20296;-47
2021/07/08 10:55:33;;;;;;;5.20;3.45;;;19.90;99.90;;;;;;4915792;29;20263;-45
2021/07/08 10:58:01;;;;;;;3.50;3.20;;;19.90;99.90;;;;;;4915972;29;20282;-44
2021/07/08 11:00:47;;;;;;;3.90;3.70;;;19.80;99.90;;;;;;4915844;29;20208;-47
2021/07/08 11:03:41;;;;;;;4.65;3.60;;;19.80;99.90;;;;;;4915949;29;20298;-44
2021/07/08 11:06:18;;;;;;;4.15;3.83;;;19.80;99.90;;;;;;4915842;29;20350;-45
2021/07/08 11:09:03;;;;;;;4.93;4.53;;;19.80;99.90;;;;;;4915918;29;20240;-45
2021/07/08 11:12:03;;;;;;;13.05;5.68;;;19.80;99.90;;;;;;4915731;29;20248;-43
2021/07/08 11:14:32;;;;;;;68.25;16.08;;;20.00;99.90;;;;;;4915759;29;20308;-44
2021/07/08 11:17:14;;;;;;;19.90;8.20;;;20.00;99.90;;;;;;4915734;29;20586;-47
2021/07/08 11:19:46;;;;;;;18.25;6.13;;;20.10;99.90;;;;;;4915617;29;20212;-44
2021/07/08 11:22:33;;;;;;;4.28;3.95;;;20.20;99.90;;;;;;4915120;29;20241;-47
2021/07/08 11:25:17;;;;;;;8.07;5.47;;;20.20;99.90;;;;;;4915437;29;20243;-46
2021/07/08 11:27:46;;;;;;;5.00;4.68;;;20.10;99.90;;;;;;4915397;29;20319;-48
2021/07/08 11:30:31;;;;;;;12.07;6.72;;;20.00;99.90;;;;;;4916387;29;20231;-49
2021/07/08 11:33:03;;;;;;;6.95;4.15;;;20.00;99.90;;;;;;4918928;29;20209;-50
2021/07/08 11:35:34;;;;;;;3.97;3.50;;;20.00;99.90;;;;;;4918864;29;20591;-48
2021/07/08 11:38:09;;;;;;;4.45;4.05;;;20.00;99.90;;;;;;4918966;29;20217;-47
2021/07/08 11:40:42;;;;;;;4.25;3.95;;;20.10;99.90;;;;;;4918878;29;20303;-50
2021/07/08 11:43:18;;;;;;;5.45;3.90;;;20.10;99.90;;;;;;4918596;29;20311;-46
2021/07/08 11:45:47;;;;;;;4.07;3.78;;;20.20;99.90;;;;;;4918452;29;20232;-46
2021/07/08 11:48:28;;;;;;;3.85;3.53;;;20.30;99.90;;;;;;4918761;29;20251;-48
2021/07/08 11:50:57;;;;;;;4.00;3.60;;;20.30;99.90;;;;;;4918844;29;20217;-49
2021/07/08 11:53:25;;;;;;;5.38;4.88;;;20.20;99.90;;;;;;4920072;29;20239;-46
2021/07/08 11:55:56;;;;;;;5.20;4.80;;;20.20;99.90;;;;;;4918558;29;20748;-45
2021/07/08 11:58:26;;;;;;;4.95;4.50;;;20.00;99.90;;;;;;4918454;29;20648;-44
2021/07/08 12:00:56;;;;;;;5.50;5.00;;;19.80;99.90;;;;;;4918750;29;20582;-45
2021/07/08 12:03:27;;;;;;;5.00;4.45;;;19.70;99.90;;;;;;4918475;29;20262;-45
2021/07/08 12:06:03;;;;;;;5.20;4.72;;;19.50;99.90;;;;;;4918274;29;20276;-48
2021/07/08 12:08:32;;;;;;;4.35;3.83;;;19.40;99.90;;;;;;4918337;29;20601;-46
2021/07/08 12:11:12;;;;;;;3.25;2.95;;;19.30;99.90;;;;;;4918525;29;20575;-44
2021/07/08 12:13:47;;;;;;;3.50;3.20;;;19.30;99.90;;;;;;4918446;29;20240;-45
2021/07/08 12:16:16;;;;;;;5.50;2.50;;;19.20;99.90;;;;;;4918385;29;20255;-44
2021/07/08 12:18:47;;;;;;;3.92;2.50;;;19.10;99.90;;;;;;4918228;29;20313;-49
2021/07/08 12:21:34;;;;;;;2.40;2.20;;;19.00;99.90;;;;;;4918032;29;20564;-47
2021/07/08 12:24:04;;;;;;;2.05;1.50;;;19.00;99.90;;;;;;4918166;29;20248;-46
2021/07/08 12:26:35;;;;;;;2.05;1.85;;;18.90;99.90;;;;;;4917888;29;20240;-46
2021/07/08 12:29:14;;;;;;;3.95;1.85;;;18.80;99.90;;;;;;4918061;29;20212;-45
2021/07/08 12:31:44;;;;;;;2.13;1.92;;;18.70;99.90;;;;;;4917945;29;20221;-47
2021/07/08 12:34:18;;;;;;;2.63;2.42;;;18.70;99.90;;;;;;4917913;29;20248;-46
2021/07/08 12:36:47;;;;;;;2.30;2.03;;;18.70;99.90;;;;;;4918106;29;20220;-48
2021/07/08 12:39:19;;;;;;;3.33;2.88;;;18.70;99.90;;;;;;4918179;29;20631;-47
2021/07/08 12:41:49;;;;;;;2.35;2.08;;;18.80;99.90;;;;;;4917117;29;20268;-43
2021/07/08 12:44:19;;;;;;;1.98;1.73;;;18.90;99.90;;;;;;4918109;29;20224;-47
2021/07/08 12:46:53;;;;;;;2.22;2.03;;;18.90;99.90;;;;;;4917718;29;20251;-47
2021/07/08 12:49:21;;;;;;;2.22;2.00;;;19.00;99.90;;;;;;4917880;29;20581;-46
2021/07/08 12:51:50;;;;;;;2.10;1.63;;;19.10;99.90;;;;;;4917769;29;20292;-48
2021/07/08 12:54:20;;;;;;;3.28;1.90;;;19.10;99.90;;;;;;4917680;29;20259;-46
2021/07/08 12:57:09;;;;;;;2.45;1.90;;;19.20;99.90;;;;;;4917863;29;20300;-49
2021/07/08 12:59:38;;;;;;;3.00;2.40;;;19.30;99.90;;;;;;4917799;29;20240;-45